Terminal Aerodrome Forecast
Issued by NWS Blacksburg, VA

Current Version | Previous Version | Text Only | Print | Product List | Glossary Off
Versions: 1 2 3 4 5 6 7 8 9 10 11 12 13 14 15 16

000
FTUS41 KRNK 170303 AAB
TAFBLF
TAF AMD
KBLF 170303Z 1703/1724 32009KT 6SM BR OVC004
     FM171000 00000KT P6SM OVC015
     FM171300 14007KT P6SM OVC025
     FM171800 14005KT 3SM -RA OVC008
     FM172300 15004KT 3SM -RA OVC010=

USA.gov is the U.S. government's official web portal to all federal, state and local government web resources and services.